Time;durP1;ratioP1;P1;durP2;ratioP2;P2;SDS_P1;SDS_P2;PMS_P1;PMS_P2;Temp;Humidity;BMP_temperature;BMP_pressure;BME280_temperature;BME280_humidity;BME280_pressure;Samples;Min_cycle;Max_cycle;Signal;HPM_P1;HPM_P2
2021/03/26 00:00:51;;;;;;;9.43;2.00;;;10.70;99.90;;;;;;5033572;28;20068;-80
2021/03/26 00:03:21;;;;;;;14.82;2.35;;;10.70;99.90;;;;;;5012086;28;20058;-80
2021/03/26 00:05:50;;;;;;;13.57;2.42;;;10.70;99.90;;;;;;5032927;28;20136;-80
2021/03/26 00:08:17;;;;;;;11.90;2.20;;;10.70;99.90;;;;;;5015038;28;20041;-81
2021/03/26 00:10:45;;;;;;;8.77;1.67;;;10.70;99.90;;;;;;5014874;28;20049;-80
2021/03/26 00:13:12;;;;;;;11.40;2.10;;;10.70;99.90;;;;;;5016529;28;20057;-81
2021/03/26 00:15:39;;;;;;;12.98;1.80;;;10.70;99.90;;;;;;5033031;28;20068;-80
2021/03/26 00:18:05;;;;;;;8.23;1.60;;;10.70;99.90;;;;;;5016319;28;20099;-80
2021/03/26 00:20:33;;;;;;;8.57;2.10;;;10.70;99.90;;;;;;5014450;28;20490;-81
2021/03/26 00:22:59;;;;;;;9.77;1.95;;;10.70;99.90;;;;;;5015128;28;20053;-81
2021/03/26 00:25:26;;;;;;;9.90;1.70;;;10.70;99.90;;;;;;5012477;28;20072;-81
2021/03/26 00:27:53;;;;;;;12.15;1.98;;;10.70;99.90;;;;;;5032458;28;20107;-81
2021/03/26 00:30:20;;;;;;;8.60;2.03;;;10.70;99.90;;;;;;5012867;28;20131;-81
2021/03/26 00:32:47;;;;;;;12.07;2.08;;;10.70;99.90;;;;;;5040096;28;20497;-81
2021/03/26 00:35:15;;;;;;;10.40;1.80;;;10.70;99.90;;;;;;5017107;28;20049;-81
2021/03/26 00:37:42;;;;;;;12.63;1.65;;;10.70;99.90;;;;;;5033684;28;20057;-80
2021/03/26 00:40:11;;;;;;;12.10;1.80;;;10.70;99.90;;;;;;5032147;28;20054;-80
2021/03/26 00:42:38;;;;;;;11.90;1.77;;;10.70;99.90;;;;;;5002281;28;20124;-81
2021/03/26 00:45:07;;;;;;;13.45;1.83;;;10.70;99.90;;;;;;5030747;28;20444;-81
2021/03/26 00:47:34;;;;;;;;;;;10.70;99.90;;;;;;5032005;28;20084;-81
2021/03/26 00:50:01;;;;;;;7.35;1.30;;;10.70;99.90;;;;;;5033848;28;19925;-81
2021/03/26 00:52:27;;;;;;;8.52;1.80;;;10.70;99.90;;;;;;5015089;28;20111;-81
2021/03/26 00:54:54;;;;;;;15.07;2.05;;;10.70;99.90;;;;;;5015022;28;20049;-81
2021/03/26 00:57:20;;;;;;;7.47;1.60;;;10.70;99.90;;;;;;5019546;28;20391;-80
2021/03/26 00:59:46;;;;;;;11.05;2.03;;;10.70;99.90;;;;;;5013905;28;20057;-81
2021/03/26 01:02:13;;;;;;;12.52;1.83;;;10.70;99.90;;;;;;5015354;28;20045;-81
2021/03/26 01:04:39;;;;;;;10.63;1.77;;;10.70;99.90;;;;;;5033408;28;20045;-81
2021/03/26 01:07:07;;;;;;;9.95;1.52;;;10.70;99.90;;;;;;5031491;28;20045;-81
2021/03/26 01:09:33;;;;;;;9.93;1.52;;;10.80;99.90;;;;;;5008683;28;20431;-80
2021/03/26 01:11:59;;;;;;;11.63;2.25;;;10.80;99.90;;;;;;5012499;28;20068;-80
2021/03/26 01:14:26;;;;;;;8.77;1.63;;;10.80;99.90;;;;;;5030043;28;20052;-80
2021/03/26 01:16:53;;;;;;;9.00;1.92;;;10.80;99.90;;;;;;4999272;28;20053;-81
2021/03/26 01:19:20;;;;;;;10.00;1.73;;;10.80;99.90;;;;;;5011559;28;20059;-81
2021/03/26 01:21:46;;;;;;;8.05;1.95;;;10.80;99.90;;;;;;5029988;28;20107;-81
2021/03/26 01:24:16;;;;;;;9.13;1.67;;;10.80;99.90;;;;;;5012686;28;20054;-80
2021/03/26 01:26:42;;;;;;;8.68;1.55;;;10.80;99.90;;;;;;5031913;28;20057;-81
2021/03/26 01:29:11;;;;;;;11.80;2.05;;;10.80;99.90;;;;;;5012551;28;20061;-81
2021/03/26 01:31:38;;;;;;;11.68;2.08;;;10.80;99.90;;;;;;5012576;28;20065;-80
2021/03/26 01:34:06;;;;;;;11.63;1.75;;;10.80;99.90;;;;;;5012912;28;20045;-81
2021/03/26 01:36:33;;;;;;;10.25;1.73;;;10.80;99.90;;;;;;5010400;28;20045;-80
2021/03/26 01:39:00;;;;;;;10.57;1.95;;;10.80;99.90;;;;;;5014961;28;20536;-80
2021/03/26 01:41:34;;;;;;;8.77;1.90;;;10.80;99.90;;;;;;4998630;28;20065;-81
2021/03/26 01:44:01;;;;;;;11.32;2.05;;;10.80;99.90;;;;;;5032557;28;20045;-80
2021/03/26 01:46:28;;;;;;;11.90;2.00;;;10.80;99.90;;;;;;5013302;28;20057;-81
2021/03/26 01:48:58;;;;;;;11.40;1.90;;;10.80;99.90;;;;;;5024288;28;20049;-81
2021/03/26 01:51:40;;;;;;;15.75;2.33;;;10.80;99.90;;;;;;5025904;28;20067;-81
2021/03/26 01:54:11;;;;;;;13.75;1.98;;;10.80;99.90;;;;;;5013099;28;20175;-80
2021/03/26 01:56:38;;;;;;;13.55;2.40;;;10.80;99.90;;;;;;5015055;28;20054;-80
2021/03/26 01:59:05;;;;;;;13.32;2.30;;;10.80;99.90;;;;;;5027847;28;20049;-81
2021/03/26 02:01:45;;;;;;;8.90;2.20;;;10.80;99.90;;;;;;5030676;28;20132;-80
2021/03/26 02:04:25;;;;;;;17.30;3.08;;;10.80;99.90;;;;;;5016202;28;20470;-81
2021/03/26 02:06:55;;;;;;;14.98;2.20;;;10.80;99.90;;;;;;5023027;28;20430;-81
2021/03/26 02:09:28;;;;;;;18.27;2.13;;;10.80;99.90;;;;;;5014089;28;20049;-81
2021/03/26 02:12:15;;;;;;;15.50;2.58;;;10.80;99.90;;;;;;5007912;28;20049;-81
2021/03/26 02:14:46;;;;;;;13.95;1.95;;;10.80;99.90;;;;;;4994771;28;20042;-81
2021/03/26 02:17:19;;;;;;;17.60;2.47;;;10.80;99.90;;;;;;5010104;28;20112;-81
2021/03/26 02:23:36;;;;;;;11.82;2.28;;;10.70;99.90;;;;;;5006907;28;20475;-80
2021/03/26 02:26:24;;;;;;;15.90;2.03;;;10.70;99.90;;;;;;5009346;28;20050;-80
2021/03/26 02:28:52;;;;;;;12.77;1.88;;;10.70;99.90;;;;;;5009122;28;20046;-80
2021/03/26 02:31:19;;;;;;;12.90;2.20;;;10.70;99.90;;;;;;4992754;28;20372;-81
2021/03/26 02:33:46;;;;;;;12.57;2.80;;;10.70;99.90;;;;;;4995287;28;20570;-81
2021/03/26 02:36:13;;;;;;;18.77;3.35;;;10.70;99.90;;;;;;5011603;28;20104;-80
2021/03/26 02:39:03;;;;;;;8.85;1.83;;;10.70;99.90;;;;;;4992206;28;20187;-81
2021/03/26 02:41:39;;;;;;;14.45;1.95;;;10.70;99.90;;;;;;4990344;28;20492;-80
2021/03/26 02:44:26;;;;;;;11.32;2.10;;;10.70;99.90;;;;;;4983334;28;20100;-81
2021/03/26 02:47:18;;;;;;;10.60;1.90;;;10.60;99.90;;;;;;5014183;28;20041;-81
2021/03/26 02:50:14;;;;;;;15.20;2.63;;;10.60;99.90;;;;;;5005733;28;20053;-80
2021/03/26 02:52:57;;;;;;;18.70;2.22;;;10.50;99.90;;;;;;4977483;28;20042;-80
2021/03/26 02:56:04;;;;;;;9.98;2.30;;;10.50;99.90;;;;;;4996548;28;20054;-80
2021/03/26 02:58:39;;;;;;;12.82;2.25;;;10.40;99.90;;;;;;4996577;28;20484;-80
2021/03/26 03:01:27;;;;;;;12.85;2.50;;;10.40;99.90;;;;;;5012556;28;20103;-80
2021/03/26 03:03:58;;;;;;;13.13;2.50;;;10.40;99.90;;;;;;5015706;28;20058;-80
2021/03/26 03:06:30;;;;;;;14.85;2.10;;;10.30;99.90;;;;;;5010549;28;20056;-80
2021/03/26 03:09:00;;;;;;;16.08;2.88;;;10.30;99.90;;;;;;5003993;28;20105;-80
2021/03/26 03:11:39;;;;;;;11.88;1.95;;;10.30;99.90;;;;;;4994204;28;20053;-80
2021/03/26 03:14:30;;;;;;;11.27;1.80;;;10.30;99.90;;;;;;5014030;28;20049;-81
2021/03/26 03:17:26;;;;;;;10.95;2.17;;;10.30;99.90;;;;;;5012164;28;20478;-81
2021/03/26 03:20:07;;;;;;;13.45;1.95;;;10.30;99.90;;;;;;4998374;28;20046;-80
2021/03/26 03:22:58;;;;;;;11.73;1.90;;;10.20;99.90;;;;;;5003574;28;20046;-81
2021/03/26 03:25:27;;;;;;;11.75;2.42;;;10.20;99.90;;;;;;5024409;28;20108;-80
2021/03/26 03:28:12;;;;;;;;;;;10.20;99.90;;;;;;5014389;28;20119;-81
2021/03/26 03:30:49;;;;;;;10.05;1.65;;;10.20;99.90;;;;;;5013187;28;19964;-80
2021/03/26 03:33:38;;;;;;;14.52;2.00;;;10.20;99.90;;;;;;5009946;28;20101;-80
2021/03/26 03:36:12;;;;;;;12.70;2.25;;;10.20;99.90;;;;;;5007681;28;20133;-80
2021/03/26 03:38:56;;;;;;;13.63;2.17;;;10.20;99.90;;;;;;5013195;28;20100;-80
2021/03/26 03:41:29;;;;;;;11.52;1.45;;;10.10;99.90;;;;;;5004904;28;20480;-80
2021/03/26 03:44:17;;;;;;;15.75;2.17;;;10.20;99.90;;;;;;4999515;28;20046;-81
2021/03/26 03:46:49;;;;;;;10.70;2.20;;;10.20;99.90;;;;;;5005445;28;20049;-80
2021/03/26 03:49:50;;;;;;;8.60;1.58;;;10.20;99.90;;;;;;5001102;28;20082;-80
2021/03/26 03:52:42;;;;;;;12.07;2.05;;;10.20;99.90;;;;;;4994111;28;20049;-80
2021/03/26 03:55:16;;;;;;;11.55;1.88;;;10.20;99.90;;;;;;5011397;28;20133;-80
2021/03/26 03:58:02;;;;;;;11.73;1.92;;;10.20;99.90;;;;;;5000946;28;20555;-80
2021/03/26 04:00:40;;;;;;;14.23;2.00;;;10.10;99.90;;;;;;5003846;28;20073;-80
2021/03/26 04:03:18;;;;;;;9.13;1.60;;;10.20;99.90;;;;;;5002370;28;20169;-80
2021/03/26 04:06:10;;;;;;;11.93;1.92;;;10.20;99.90;;;;;;5012587;28;20061;-80
2021/03/26 04:08:42;;;;;;;14.07;2.00;;;10.20;99.90;;;;;;5008546;28;20045;-80
2021/03/26 04:11:28;;;;;;;8.43;1.98;;;10.20;99.90;;;;;;5017089;28;20196;-80
2021/03/26 04:14:07;;;;;;;6.38;1.48;;;10.20;99.90;;;;;;5032397;28;20434;-80
2021/03/26 04:16:36;;;;;;;8.77;1.58;;;10.20;99.90;;;;;;5018214;28;20046;-80
2021/03/26 04:19:13;;;;;;;9.15;1.63;;;10.20;99.90;;;;;;5011020;28;20061;-80
2021/03/26 04:21:43;;;;;;;6.32;1.73;;;10.30;99.90;;;;;;5010403;28;20054;-80
2021/03/26 04:24:15;;;;;;;6.22;1.52;;;10.20;99.90;;;;;;5028482;28;20136;-80
2021/03/26 04:27:29;;;;;;;9.43;1.80;;;10.30;99.90;;;;;;5015919;28;20046;-80
2021/03/26 04:30:16;;;;;;;9.48;1.30;;;10.30;99.90;;;;;;4948176;28;20051;-80
2021/03/26 04:32:42;;;;;;;7.32;1.25;;;10.30;99.90;;;;;;4947210;29;20063;-81
2021/03/26 04:35:11;;;;;;;6.38;1.40;;;10.30;99.90;;;;;;4951962;28;20054;-81
2021/03/26 04:37:37;;;;;;;7.00;1.67;;;10.30;99.90;;;;;;4936264;29;20059;-81
2021/03/26 04:40:16;;;;;;;7.00;1.80;;;10.30;99.90;;;;;;4929358;29;20422;-80
2021/03/26 04:43:16;;;;;;;10.30;1.55;;;10.30;99.90;;;;;;4934531;29;20055;-80
2021/03/26 04:45:47;;;;;;;13.20;1.90;;;10.40;99.90;;;;;;4951690;29;20130;-81
2021/03/26 04:48:19;;;;;;;12.18;2.20;;;10.30;99.90;;;;;;4951695;28;20036;-81
2021/03/26 04:51:23;;;;;;;9.45;1.40;;;10.30;99.90;;;;;;4943115;28;20051;-80
2021/03/26 04:54:00;;;;;;;12.95;1.85;;;10.40;99.90;;;;;;4911965;29;20048;-81
2021/03/26 04:56:34;;;;;;;8.68;1.65;;;10.40;99.90;;;;;;4914007;29;20064;-80
2021/03/26 04:59:03;;;;;;;10.00;2.40;;;10.40;99.90;;;;;;4901363;29;20044;-80
2021/03/26 05:01:31;;;;;;;;;;;10.40;99.90;;;;;;4913631;29;20052;-81
2021/03/26 05:04:08;;;;;;;13.95;1.90;;;10.40;99.90;;;;;;4915057;29;20056;-80
2021/03/26 05:06:39;;;;;;;10.57;2.15;;;10.40;99.90;;;;;;4938921;28;20053;-81
2021/03/26 05:09:08;;;;;;;9.73;1.80;;;10.40;99.90;;;;;;4949341;28;20058;-81
2021/03/26 05:11:39;;;;;;;13.02;2.05;;;10.40;99.90;;;;;;4973100;28;20493;-81
2021/03/26 05:14:19;;;;;;;8.30;1.50;;;10.40;99.90;;;;;;4969864;28;20050;-80
2021/03/26 05:17:00;;;;;;;8.65;1.60;;;10.40;99.90;;;;;;4956587;28;20481;-80
2021/03/26 05:19:54;;;;;;;12.98;1.90;;;10.40;99.90;;;;;;4952754;28;20196;-80
2021/03/26 05:22:45;;;;;;;11.48;1.77;;;10.40;99.90;;;;;;4961328;28;20047;-81
2021/03/26 05:25:20;;;;;;;11.05;1.70;;;10.40;99.90;;;;;;4965716;28;20051;-80
2021/03/26 05:27:47;;;;;;;8.82;1.48;;;10.40;99.90;;;;;;4950287;28;20047;-80
2021/03/26 05:30:28;;;;;;;12.20;1.80;;;10.50;99.90;;;;;;5019048;28;20395;-81
2021/03/26 05:33:35;;;;;;;12.85;2.60;;;10.50;99.90;;;;;;5014521;28;20045;-80
2021/03/26 05:36:27;;;;;;;8.88;1.88;;;10.50;99.90;;;;;;5010971;28;20127;-80
2021/03/26 05:39:00;;;;;;;8.35;1.80;;;10.50;99.90;;;;;;5031477;28;20057;-81
2021/03/26 05:41:40;;;;;;;11.63;2.15;;;10.50;99.90;;;;;;5013261;28;20049;-81
2021/03/26 05:44:41;;;;;;;12.73;2.30;;;10.50;99.90;;;;;;5015421;28;20060;-81
2021/03/26 05:47:32;;;;;;;13.45;2.17;;;10.50;99.90;;;;;;5015178;28;20056;-80
2021/03/26 05:50:23;;;;;;;10.00;2.15;;;10.50;99.90;;;;;;5032084;28;20403;-80
2021/03/26 05:53:01;;;;;;;12.88;2.45;;;10.50;99.90;;;;;;5014817;28;20049;-80
2021/03/26 05:55:40;;;;;;;9.32;1.70;;;10.50;99.90;;;;;;5028509;28;20092;-81
2021/03/26 05:58:31;;;;;;;13.35;1.92;;;10.40;99.90;;;;;;5025625;28;20058;-81
2021/03/26 06:01:24;;;;;;;8.07;1.83;;;10.50;99.90;;;;;;5022817;28;20112;-81
2021/03/26 06:03:51;;;;;;;9.30;1.45;;;10.50;99.90;;;;;;5012750;28;20096;-81
2021/03/26 06:06:38;;;;;;;9.75;2.28;;;10.50;99.90;;;;;;5025768;28;20132;-80
2021/03/26 06:09:31;;;;;;;9.80;2.28;;;10.50;99.90;;;;;;5025273;28;20073;-80
2021/03/26 06:12:03;;;;;;;14.77;2.22;;;10.50;99.90;;;;;;4937562;28;20051;-81
2021/03/26 06:14:41;;;;;;;15.65;1.92;;;10.50;99.90;;;;;;4932154;29;20390;-81
2021/03/26 06:17:27;;;;;;;13.40;2.08;;;10.50;99.90;;;;;;4910667;29;20052;-81
2021/03/26 06:19:56;;;;;;;15.90;2.67;;;10.50;99.90;;;;;;4931811;29;20063;-81
2021/03/26 06:22:28;;;;;;;11.98;2.13;;;10.50;99.90;;;;;;4931613;29;20114;-80
2021/03/26 06:25:07;;;;;;;11.68;2.10;;;10.50;99.90;;;;;;4932887;29;20055;-80
2021/03/26 06:27:57;;;;;;;10.65;1.95;;;10.60;99.90;;;;;;4932437;29;20051;-81
2021/03/26 06:31:14;;;;;;;9.18;1.70;;;10.60;99.90;;;;;;4917573;29;20048;-80
2021/03/26 06:33:58;;;;;;;7.97;1.67;;;10.60;99.90;;;;;;4874796;29;20105;-80
2021/03/26 06:36:41;;;;;;;11.55;1.95;;;10.60;99.90;;;;;;4875106;29;20060;-81
2021/03/26 06:39:26;;;;;;;13.48;2.53;;;10.60;99.90;;;;;;4863181;29;20053;-80
2021/03/26 06:42:05;;;;;;;13.55;2.70;;;10.60;99.90;;;;;;4874436;29;20523;-80
2021/03/26 06:44:57;;;;;;;14.23;2.53;;;10.60;99.90;;;;;;4874438;29;20104;-81
2021/03/26 06:47:54;;;;;;;12.60;2.17;;;10.60;99.90;;;;;;4871252;29;20048;-80
2021/03/26 06:50:48;;;;;;;14.27;1.88;;;10.60;99.90;;;;;;4911508;29;20431;-80
2021/03/26 06:53:46;;;;;;;17.98;2.42;;;10.60;99.90;;;;;;4922144;29;20082;-80
2021/03/26 06:56:27;;;;;;;14.27;2.65;;;10.60;99.90;;;;;;4913434;29;20052;-81
2021/03/26 06:59:23;;;;;;;11.98;2.13;;;10.70;99.90;;;;;;4915122;29;20052;-81
2021/03/26 07:02:01;;;;;;;16.25;2.25;;;10.80;99.90;;;;;;4911989;29;20051;-80
2021/03/26 07:04:30;;;;;;;12.00;3.03;;;10.80;99.90;;;;;;4898029;29;20067;-80
2021/03/26 07:07:20;;;;;;;12.88;2.55;;;10.80;99.90;;;;;;4913188;29;20051;-80
2021/03/26 07:10:11;;;;;;;16.67;2.60;;;10.80;99.90;;;;;;4993336;28;20399;-82
2021/03/26 07:12:56;;;;;;;13.07;2.30;;;10.80;99.90;;;;;;5022434;28;20073;-81
2021/03/26 07:15:34;;;;;;;15.43;2.42;;;10.90;99.90;;;;;;5029204;28;20084;-81
2021/03/26 07:18:33;;;;;;;15.80;2.70;;;10.90;99.90;;;;;;5009836;28;20403;-81
2021/03/26 07:21:26;;;;;;;13.57;1.92;;;10.90;99.90;;;;;;4943706;28;20552;-81
2021/03/26 07:24:24;;;;;;;15.95;2.38;;;10.90;99.90;;;;;;4960157;28;20055;-81
2021/03/26 07:27:09;;;;;;;;;;;10.90;99.90;;;;;;4896456;29;20079;-81
2021/03/26 07:30:25;;;;;;;13.52;2.20;;;10.90;99.90;;;;;;4896272;29;19924;-81
2021/03/26 07:33:11;;;;;;;14.85;2.38;;;10.90;99.90;;;;;;4834454;29;20050;-81
2021/03/26 07:36:10;;;;;;;17.95;2.83;;;10.90;99.90;;;;;;4841397;29;20069;-81
2021/03/26 07:38:52;;;;;;;17.60;3.05;;;10.90;99.90;;;;;;4849660;29;20081;-81
2021/03/26 07:42:01;;;;;;;13.85;2.70;;;10.90;99.90;;;;;;4833936;29;20370;-81
2021/03/26 07:44:43;;;;;;;19.88;2.90;;;10.90;99.90;;;;;;4845663;29;20061;-81
2021/03/26 07:47:47;;;;;;;17.35;2.90;;;11.00;99.90;;;;;;4840161;29;20050;-81
2021/03/26 07:50:44;;;;;;;13.15;2.90;;;11.00;99.90;;;;;;4846386;29;20042;-81
2021/03/26 07:53:38;;;;;;;15.23;2.75;;;11.00;99.90;;;;;;4845053;29;20053;-81
2021/03/26 07:57:01;;;;;;;23.10;3.47;;;11.00;99.90;;;;;;4843826;29;20148;-81
2021/03/26 07:59:30;;;;;;;15.45;2.97;;;11.00;99.90;;;;;;4897846;29;20432;-81
2021/03/26 08:02:07;;;;;;;;;;;11.00;99.90;;;;;;4891400;29;20585;-81
2021/03/26 08:04:43;;;;;;;17.08;2.75;;;11.00;99.90;;;;;;4926624;29;20345;-81
2021/03/26 08:07:51;;;;;;;11.75;2.50;;;11.00;99.90;;;;;;4917590;29;20056;-81
2021/03/26 08:10:47;;;;;;;12.93;2.42;;;11.00;99.90;;;;;;4984722;28;20480;-81
2021/03/26 08:13:19;;;;;;;15.55;2.38;;;11.00;99.90;;;;;;5029991;28;20053;-81
2021/03/26 08:15:58;;;;;;;14.13;2.72;;;11.00;99.90;;;;;;5032509;28;20049;-81
2021/03/26 08:18:24;;;;;;;14.38;2.65;;;11.00;99.90;;;;;;5032484;28;20099;-81
2021/03/26 08:21:21;;;;;;;20.00;2.38;;;11.10;99.90;;;;;;5017310;28;20057;-81
2021/03/26 08:23:59;;;;;;;15.98;2.70;;;11.10;99.90;;;;;;5021389;28;20050;-81
2021/03/26 08:26:41;;;;;;;14.43;2.80;;;11.10;99.90;;;;;;5019387;28;20507;-81
2021/03/26 08:29:17;;;;;;;12.07;2.35;;;11.10;99.90;;;;;;5027480;28;20474;-81
2021/03/26 08:31:50;;;;;;;11.52;2.08;;;11.10;99.90;;;;;;5015835;28;20057;-81
2021/03/26 08:34:31;;;;;;;8.93;2.10;;;11.10;99.90;;;;;;5013156;28;20049;-81
2021/03/26 08:37:37;;;;;;;9.40;2.00;;;11.10;99.90;;;;;;5024947;28;20065;-81
2021/03/26 08:40:05;;;;;;;12.85;2.25;;;11.10;99.90;;;;;;5030024;28;20742;-81
2021/03/26 08:42:44;;;;;;;8.32;2.03;;;11.00;99.90;;;;;;5023168;28;20360;-81
2021/03/26 08:45:35;;;;;;;10.52;2.50;;;11.00;99.90;;;;;;5027941;28;20049;-81
2021/03/26 08:48:45;;;;;;;12.57;2.45;;;10.90;99.90;;;;;;5011172;28;20112;-81
2021/03/26 08:51:55;;;;;;;17.20;3.50;;;10.90;99.90;;;;;;5027036;28;20045;-81
2021/03/26 08:54:45;;;;;;;24.85;3.53;;;10.90;99.90;;;;;;5009221;28;20128;-81
2021/03/26 08:57:26;;;;;;;19.95;3.15;;;11.00;99.90;;;;;;5025557;28;20103;-81
2021/03/26 09:00:05;;;;;;;20.77;4.50;;;11.10;99.90;;;;;;5012906;28;20111;-81
2021/03/26 09:02:40;;;;;;;27.05;3.72;;;11.20;99.90;;;;;;5023406;28;20107;-81
2021/03/26 09:05:31;;;;;;;26.73;4.53;;;11.30;99.90;;;;;;5008709;28;20045;-81
2021/03/26 09:08:21;;;;;;;20.75;3.97;;;11.30;99.90;;;;;;5018950;28;20049;-81
2021/03/26 09:11:05;;;;;;;20.95;3.65;;;11.40;99.90;;;;;;5004407;28;20431;-81
2021/03/26 09:13:52;;;;;;;26.15;3.75;;;11.50;99.90;;;;;;5015824;28;20052;-81
2021/03/26 09:16:31;;;;;;;24.58;3.97;;;11.60;99.90;;;;;;5032873;28;20049;-81
2021/03/26 09:19:04;;;;;;;23.05;4.20;;;11.70;99.90;;;;;;5015327;28;20166;-81
2021/03/26 09:21:34;;;;;;;22.38;3.60;;;11.70;99.90;;;;;;5024283;28;20042;-81
2021/03/26 09:24:23;;;;;;;31.30;4.47;;;11.80;99.90;;;;;;5025290;28;20083;-81
2021/03/26 09:27:25;;;;;;;21.83;3.60;;;11.80;99.90;;;;;;5028864;28;20053;-81
2021/03/26 09:30:01;;;;;;;20.05;3.22;;;11.80;99.90;;;;;;5026763;28;20452;-81
2021/03/26 09:32:35;;;;;;;25.92;4.32;;;11.90;99.90;;;;;;5032044;28;20501;-81
2021/03/26 09:35:02;;;;;;;22.23;4.10;;;11.90;99.90;;;;;;5029445;28;20113;-81
2021/03/26 09:37:40;;;;;;;19.13;3.53;;;11.90;99.90;;;;;;5014970;28;20049;-81
2021/03/26 09:40:20;;;;;;;23.13;4.30;;;12.00;99.90;;;;;;5029293;28;20046;-81
2021/03/26 09:43:10;;;;;;;19.80;4.20;;;12.00;99.90;;;;;;5005930;28;20383;-81
2021/03/26 09:45:47;;;;;;;21.70;3.80;;;12.10;99.90;;;;;;5028243;28;20140;-81
2021/03/26 09:48:38;;;;;;;21.48;3.10;;;12.10;99.90;;;;;;5027195;28;20041;-81
2021/03/26 09:51:24;;;;;;;20.10;3.85;;;12.10;99.90;;;;;;5033843;28;20479;-81
2021/03/26 09:53:55;;;;;;;20.60;3.75;;;12.10;99.90;;;;;;5013873;28;20068;-81
2021/03/26 09:56:31;;;;;;;22.33;3.65;;;12.10;99.90;;;;;;5010183;28;20050;-81
2021/03/26 09:59:27;;;;;;;16.55;3.75;;;12.20;99.90;;;;;;5016261;28;20125;-81
2021/03/26 10:02:06;;;;;;;21.17;3.55;;;12.10;99.90;;;;;;5000539;28;20061;-80
2021/03/26 10:04:39;;;;;;;21.40;4.25;;;12.10;99.90;;;;;;5005948;28;20124;-81
2021/03/26 10:07:34;;;;;;;23.42;4.00;;;12.00;99.90;;;;;;5014871;28;20060;-81
2021/03/26 10:13:01;;;;;;;23.50;4.63;;;11.80;99.90;;;;;;5045263;28;20057;-81
2021/03/26 10:15:58;;;;;;;24.23;4.28;;;11.70;99.90;;;;;;5009563;28;20182;-81
2021/03/26 10:18:32;;;;;;;31.40;5.03;;;11.80;99.90;;;;;;5002632;28;20068;-81
2021/03/26 10:21:09;;;;;;;28.25;4.75;;;11.80;99.90;;;;;;5026349;28;20052;-81
2021/03/26 10:23:44;;;;;;;24.88;4.47;;;11.80;99.90;;;;;;5014097;28;20053;-80
2021/03/26 10:26:39;;;;;;;20.40;3.92;;;11.80;99.90;;;;;;5031450;28;20406;-81
2021/03/26 10:29:23;;;;;;;25.17;4.57;;;11.80;99.90;;;;;;5012557;28;20412;-81
2021/03/26 10:31:52;;;;;;;21.88;4.93;;;11.80;99.90;;;;;;5015381;28;20058;-81
2021/03/26 10:34:35;;;;;;;19.95;4.07;;;11.60;99.90;;;;;;5010102;28;20412;-81
2021/03/26 10:37:32;;;;;;;27.98;4.75;;;11.60;99.90;;;;;;5010399;28;20049;-81
2021/03/26 10:40:30;;;;;;;27.88;4.32;;;11.50;99.90;;;;;;5027310;28;20069;-81
2021/03/26 10:43:18;;;;;;;;;;;11.40;99.90;;;;;;5029551;28;20425;-81
2021/03/26 10:45:56;;;;;;;11.27;2.10;;;11.30;99.90;;;;;;5014748;28;19932;-80
2021/03/26 10:49:01;;;;;;;11.52;2.00;;;11.10;99.90;;;;;;5029011;28;20164;-81
2021/03/26 10:51:43;;;;;;;9.40;1.58;;;10.80;99.90;;;;;;5012440;28;20044;-81
2021/03/26 10:54:21;;;;;;;9.40;1.30;;;10.60;99.90;;;;;;5019513;28;20046;-81
2021/03/26 10:56:51;;;;;;;7.57;1.52;;;10.50;99.90;;;;;;5014042;28;20049;-81
2021/03/26 10:59:37;;;;;;;6.47;1.23;;;10.40;99.90;;;;;;5014030;28;20068;-81
2021/03/26 11:02:42;;;;;;;8.10;1.60;;;10.30;99.90;;;;;;5012213;28;20056;-81
2021/03/26 11:05:25;;;;;;;7.22;1.33;;;10.20;99.90;;;;;;5034318;28;20378;-81
2021/03/26 11:08:00;;;;;;;8.70;1.63;;;10.10;99.90;;;;;;5018848;28;20471;-81
2021/03/26 11:10:40;;;;;;;7.13;1.10;;;10.00;99.90;;;;;;5015929;28;20083;-81
2021/03/26 11:13:16;;;;;;;6.88;1.20;;;9.90;99.90;;;;;;5033117;28;20046;-81
2021/03/26 11:15:51;;;;;;;9.35;1.42;;;9.80;99.90;;;;;;5027588;28;20061;-81
2021/03/26 11:18:37;;;;;;;7.80;1.33;;;9.80;99.90;;;;;;5019744;28;20045;-81
2021/03/26 11:21:10;;;;;;;4.55;1.00;;;9.90;99.90;;;;;;5019452;28;20056;-81
2021/03/26 11:23:38;;;;;;;8.65;1.40;;;10.00;99.90;;;;;;5015594;28;20045;-81
2021/03/26 11:26:05;;;;;;;7.60;1.60;;;10.00;99.90;;;;;;5017400;28;20041;-81
2021/03/26 11:29:06;;;;;;;10.57;1.35;;;10.00;99.90;;;;;;5042883;28;20045;-81
2021/03/26 11:31:51;;;;;;;8.30;1.48;;;9.90;99.90;;;;;;5002246;28;20054;-80
2021/03/26 11:34:32;;;;;;;9.13;1.33;;;9.80;99.90;;;;;;5011123;28;20082;-81
2021/03/26 11:37:09;;;;;;;7.95;1.20;;;9.80;99.90;;;;;;5034974;28;20429;-81
2021/03/26 11:39:57;;;;;;;5.97;1.08;;;9.70;99.90;;;;;;5028389;28;20054;-81
2021/03/26 11:42:45;;;;;;;8.45;1.48;;;9.60;99.90;;;;;;5028569;28;20411;-81
2021/03/26 11:45:37;;;;;;;11.43;1.50;;;9.50;99.90;;;;;;5033444;28;20092;-81
2021/03/26 11:48:34;;;;;;;8.82;2.13;;;9.50;99.90;;;;;;5032355;28;20092;-81
2021/03/26 11:51:31;;;;;;;12.40;2.25;;;9.50;99.90;;;;;;5034289;28;20484;-81
2021/03/26 11:54:01;;;;;;;13.13;1.70;;;9.40;99.90;;;;;;5010823;28;20048;-81
2021/03/26 11:57:13;;;;;;;9.30;1.50;;;9.40;99.90;;;;;;5012479;28;20049;-81
2021/03/26 11:59:46;;;;;;;13.85;2.22;;;9.40;99.90;;;;;;5023061;28;20049;-80
2021/03/26 12:02:15;;;;;;;12.70;2.00;;;9.50;99.90;;;;;;5028019;28;20049;-80
2021/03/26 12:04:54;;;;;;;15.55;2.00;;;9.40;99.90;;;;;;5032800;28;20395;-80
2021/03/26 12:07:44;;;;;;;21.17;3.47;;;9.50;99.90;;;;;;5033093;28;20045;-80
2021/03/26 12:10:21;;;;;;;16.02;2.10;;;9.60;99.90;;;;;;5018804;28;20309;-81
2021/03/26 12:13:14;;;;;;;13.88;2.13;;;9.60;99.90;;;;;;5032906;28;20062;-80
2021/03/26 12:16:04;;;;;;;20.30;3.05;;;9.70;99.90;;;;;;5034911;28;20061;-80
2021/03/26 12:19:24;;;;;;;16.33;3.20;;;9.80;99.90;;;;;;5022439;28;20100;-80
2021/03/26 12:22:20;;;;;;;21.80;3.03;;;9.80;99.90;;;;;;4993650;28;20492;-80
2021/03/26 12:24:56;;;;;;;18.98;3.70;;;9.60;99.90;;;;;;4988842;28;20109;-80
2021/03/26 12:27:50;;;;;;;15.48;2.53;;;9.70;99.90;;;;;;4992653;28;20054;-80
2021/03/26 12:30:20;;;;;;;13.60;2.60;;;9.70;99.90;;;;;;4990350;28;20054;-80
2021/03/26 12:33:03;;;;;;;15.55;2.30;;;9.70;99.90;;;;;;4990867;28;20058;-80
2021/03/26 12:35:36;;;;;;;13.43;2.15;;;9.70;99.90;;;;;;4988794;28;20502;-80
2021/03/26 12:38:13;;;;;;;15.77;2.95;;;9.60;99.90;;;;;;4991943;28;20046;-80
2021/03/26 12:40:55;;;;;;;12.77;2.60;;;9.70;99.90;;;;;;4974337;28;20097;-80
2021/03/26 12:43:24;;;;;;;14.82;2.92;;;9.80;99.90;;;;;;4978717;28;20491;-80
2021/03/26 12:45:55;;;;;;;14.50;2.75;;;9.90;99.90;;;;;;4992238;28;20061;-79
2021/03/26 12:48:34;;;;;;;15.93;2.78;;;10.00;99.90;;;;;;4990355;28;20658;-80
2021/03/26 12:51:27;;;;;;;15.98;2.38;;;10.10;99.90;;;;;;4976330;28;20050;-80
2021/03/26 12:54:15;;;;;;;18.13;3.10;;;10.20;99.90;;;;;;4991576;28;20089;-80
2021/03/26 12:57:01;;;;;;;17.63;3.10;;;10.30;99.90;;;;;;4977018;28;20053;-80
2021/03/26 12:59:56;;;;;;;20.30;2.92;;;10.40;99.90;;;;;;5021691;28;20057;-80
2021/03/26 13:02:37;;;;;;;15.60;2.55;;;10.50;99.90;;;;;;5012801;28;20422;-80
2021/03/26 13:05:26;;;;;;;17.00;2.83;;;10.50;99.90;;;;;;5010962;28;20049;-80
2021/03/26 13:08:20;;;;;;;14.98;3.15;;;10.60;99.90;;;;;;5020384;28;20108;-80
2021/03/26 13:11:15;;;;;;;16.48;2.92;;;10.60;99.90;;;;;;5012062;28;20056;-80
2021/03/26 13:13:42;;;;;;;23.27;2.95;;;10.70;99.90;;;;;;5027272;28;20498;-80
2021/03/26 13:16:16;;;;;;;13.55;2.28;;;10.80;99.90;;;;;;5015319;28;20108;-80
2021/03/26 13:18:52;;;;;;;22.67;3.58;;;10.80;99.90;;;;;;5032028;28;20471;-80
2021/03/26 13:21:21;;;;;;;15.13;3.22;;;10.90;99.90;;;;;;5011332;28;20045;-80
2021/03/26 13:23:55;;;;;;;21.67;2.72;;;10.90;99.90;;;;;;5026344;28;20414;-80
2021/03/26 13:26:25;;;;;;;16.45;2.53;;;10.90;99.90;;;;;;5031594;28;20088;-80
2021/03/26 13:28:59;;;;;;;19.20;2.90;;;10.90;99.90;;;;;;5016200;28;20062;-80
2021/03/26 13:31:33;;;;;;;15.88;3.10;;;10.90;99.90;;;;;;5018040;28;20060;-80
2021/03/26 13:34:13;;;;;;;16.80;3.38;;;10.80;99.90;;;;;;5026392;28;20112;-80
2021/03/26 13:37:03;;;;;;;18.92;2.92;;;10.80;99.90;;;;;;5030564;28;20068;-80
2021/03/26 13:39:41;;;;;;;12.60;2.63;;;10.80;99.90;;;;;;5030792;28;20148;-80
2021/03/26 13:42:35;;;;;;;22.77;3.50;;;10.80;99.90;;;;;;5028730;28;20092;-81
2021/03/26 13:45:10;;;;;;;12.52;2.90;;;10.80;99.90;;;;;;5026573;28;20479;-80
2021/03/26 13:47:57;;;;;;;17.10;3.58;;;10.70;99.90;;;;;;5009697;28;20426;-80
2021/03/26 13:50:27;;;;;;;20.92;3.47;;;10.70;99.90;;;;;;5011188;28;20045;-80
2021/03/26 13:52:56;;;;;;;14.00;2.63;;;10.50;99.90;;;;;;5016494;28;20395;-80
2021/03/26 13:55:22;;;;;;;12.57;2.50;;;10.20;99.90;;;;;;5020556;28;20476;-80
2021/03/26 13:58:06;;;;;;;14.70;2.70;;;10.00;99.90;;;;;;5025872;28;20549;-80